Time;durP1;ratioP1;P1;durP2;ratioP2;P2;SDS_P1;SDS_P2;PMS_P1;PMS_P2;Temp;Humidity;BMP_temperature;BMP_pressure;BME280_temperature;BME280_humidity;BME280_pressure;Samples;Min_cycle;Max_cycle;Signal;HPM_P1;HPM_P2
2023/01/21 00:04:20;;;;;;;16.05;5.57;;;;;;;-1.21;100.00;101397.06;10371397;28;20038;-76
2023/01/21 00:09:21;;;;;;;18.20;6.68;;;;;;;-1.00;100.00;101440.47;10371024;28;20045;-76
2023/01/21 00:14:21;;;;;;;21.70;6.60;;;;;;;-1.04;100.00;101435.47;10371977;28;20061;-76
2023/01/21 00:19:23;;;;;;;18.00;6.10;;;;;;;-1.18;100.00;101412.56;10371145;28;20050;-76
2023/01/21 00:24:24;;;;;;;15.15;5.50;;;;;;;-1.45;100.00;101372.91;10371054;28;20037;-76
2023/01/21 00:29:25;;;;;;;16.85;6.03;;;;;;;-1.32;100.00;101394.06;10371241;28;20437;-76
2023/01/21 00:34:26;;;;;;;16.65;6.00;;;;;;;-1.14;100.00;101427.16;10377499;28;20103;-77
2023/01/21 00:39:26;;;;;;;20.15;6.05;;;;;;;-1.19;100.00;101421.31;10379654;28;20042;-76
2023/01/21 00:44:27;;;;;;;16.30;5.35;;;;;;;-1.12;100.00;101417.53;10378541;28;20065;-76
2023/01/21 00:49:28;;;;;;;18.67;6.32;;;;;;;-1.15;100.00;101408.06;10378221;28;20402;-76
2023/01/21 00:54:31;;;;;;;22.02;7.03;;;;;;;-1.14;100.00;101403.69;10377613;28;20175;-76
2023/01/21 00:59:32;;;;;;;21.50;6.75;;;;;;;-1.28;100.00;101390.44;10377902;28;20088;-76
2023/01/21 01:04:32;;;;;;;24.95;6.13;;;;;;;-1.28;100.00;101400.88;10377949;28;20100;-76
2023/01/21 01:09:33;;;;;;;17.23;6.43;;;;;;;-1.25;100.00;101398.13;10377529;28;20046;-76
2023/01/21 01:14:34;;;;;;;14.20;5.70;;;;;;;-1.62;100.00;101330.16;10377392;28;20053;-76
2023/01/21 01:19:35;;;;;;;15.93;5.95;;;;;;;-1.00;100.00;101416.16;10376425;28;20053;-76
2023/01/21 01:24:35;;;;;;;16.60;5.50;;;;;;;-1.25;100.00;101366.84;10377192;28;20132;-76
2023/01/21 01:29:36;;;;;;;15.43;5.82;;;;;;;-1.02;100.00;101402.31;10376664;28;20413;-76
2023/01/21 01:34:37;;;;;;;29.17;6.50;;;;;;;-1.69;100.00;101286.22;10376180;28;20417;-76
2023/01/21 01:39:38;;;;;;;15.32;5.55;;;;;;;-0.99;100.00;101399.56;10377074;28;20068;-76
2023/01/21 01:44:58;;;;;;;22.20;6.60;;;;;;;-0.92;100.00;101404.47;10376511;28;20038;-76
2023/01/21 01:50:00;;;;;;;21.98;6.43;;;;;;;-1.10;100.00;101362.72;10375742;28;20129;-76
2023/01/21 01:55:03;;;;;;;25.52;6.75;;;;;;;-0.90;100.00;101398.31;10375584;28;20128;-76
2023/01/21 02:00:08;;;;;;;15.37;6.00;;;;;;;-0.90;100.00;101395.72;10374369;28;20049;-76
2023/01/21 02:05:10;;;;;;;18.30;5.90;;;;;;;-1.01;100.00;101377.94;10374976;28;20288;-76
2023/01/21 02:10:13;;;;;;;15.02;5.82;;;;;;;-0.90;100.00;101385.28;10375262;28;20048;-76
2023/01/21 02:15:14;;;;;;;15.57;6.38;;;;;;;-0.90;100.00;101391.34;10375597;28;20046;-76
2023/01/21 02:20:37;;;;;;;18.42;6.10;;;;;;;-1.14;100.00;101333.31;10375074;28;20513;-76
2023/01/21 02:26:20;;;;;;;24.60;6.10;;;;;;;-0.92;100.00;101349.69;10375122;28;20132;-76
2023/01/21 02:31:48;;;;;;;12.73;5.63;;;;;;;-0.63;100.00;101380.56;10374564;28;20132;-76
2023/01/21 02:37:00;;;;;;;20.98;7.13;;;;;;;-0.88;100.00;101362.59;10373827;28;20058;-76
2023/01/21 02:42:29;;;;;;;17.73;5.63;;;;;;;-0.98;100.00;101320.44;10372481;28;20038;-76
2023/01/21 02:47:49;;;;;;;19.83;5.93;;;;;;;-0.58;100.00;101389.88;10373249;28;20117;-76
2023/01/21 02:52:57;;;;;;;15.65;6.20;;;;;;;-0.58;100.00;101392.47;10373152;28;20038;-76
2023/01/21 02:58:04;;;;;;;20.90;6.78;;;;;;;-1.38;100.00;101270.06;10372225;28;20049;-76
2023/01/21 03:03:29;;;;;;;20.33;6.20;;;;;;;-0.53;100.00;101406.19;10373452;28;20120;-75
2023/01/21 03:08:46;;;;;;;22.55;7.03;;;;;;;-0.54;100.00;101387.97;10372465;28;20068;-76
2023/01/21 03:19:44;;;;;;;18.60;6.78;;;;;;;-0.57;100.00;101362.00;10372048;28;20054;-76
2023/01/21 03:24:49;;;;;;;16.90;6.35;;;;;;;-0.53;100.00;101380.09;10372830;28;20042;-76
2023/01/21 03:29:56;;;;;;;22.70;6.65;;;;;;;-0.37;100.00;101395.03;10370886;28;20049;-76
2023/01/21 03:35:01;;;;;;;17.60;6.85;;;;;;;-0.56;100.00;101367.16;10371185;28;20076;-76
2023/01/21 03:40:14;;;;;;;20.08;6.78;;;;;;;-0.34;100.00;101406.16;10370722;28;20041;-77
2023/01/21 03:45:21;;;;;;;26.75;7.38;;;;;;;-0.32;100.00;101404.34;10372813;28;20042;-76
2023/01/21 03:50:29;;;;;;;23.02;7.63;;;;;;;-0.42;100.00;101379.56;10372275;28;20045;-76
2023/01/21 03:55:30;;;;;;;22.20;6.72;;;;;;;-0.17;100.00;101420.22;10371715;28;20038;-76
2023/01/21 04:00:30;;;;;;;16.92;6.10;;;;;;;-0.14;100.00;101422.66;10372377;28;20034;-76
2023/01/21 04:05:31;;;;;;;18.85;6.45;;;;;;;-0.56;100.00;101346.28;10371458;28;20049;-76
2023/01/21 04:10:32;;;;;;;16.98;6.68;;;;;;;-0.03;100.00;101436.03;10378788;28;20045;-76
2023/01/21 04:15:33;;;;;;;22.25;6.70;;;;;;;0.02;100.00;101443.69;10379220;28;20065;-76
2023/01/21 04:20:33;;;;;;;21.50;7.32;;;;;;;-0.08;100.00;101423.22;10377213;28;20069;-78
2023/01/21 04:25:34;;;;;;;18.30;6.82;;;;;;;-0.37;100.00;101372.38;10377386;28;20046;-76
2023/01/21 04:30:35;;;;;;;23.70;7.90;;;;;;;0.03;100.00;101441.00;10379169;28;20046;-77
2023/01/21 04:35:36;;;;;;;19.05;7.43;;;;;;;0.16;100.00;101455.16;10378978;28;20041;-77
2023/01/21 04:40:37;;;;;;;29.70;7.85;;;;;;;-0.89;100.00;101270.44;10378697;28;20675;-76
2023/01/21 04:45:37;;;;;;;19.13;6.57;;;;;;;-0.14;100.00;101392.16;10379127;28;20095;-77
2023/01/21 04:50:38;;;;;;;18.67;6.95;;;;;;;-0.26;100.00;101371.88;10378092;28;20046;-77
2023/01/21 04:55:39;;;;;;;28.20;7.85;;;;;;;0.24;100.00;101457.41;10377732;28;20066;-77
2023/01/21 05:00:39;;;;;;;22.33;7.75;;;;;;;0.21;100.00;101441.88;10376088;28;20440;-76
2023/01/21 05:05:40;;;;;;;28.08;7.63;;;;;;;0.39;100.00;101471.47;10378564;28;20042;-76
2023/01/21 05:10:41;;;;;;;27.05;8.57;;;;;;;0.28;100.00;101435.44;10376400;28;20041;-76
2023/01/21 05:15:42;;;;;;;20.02;8.60;;;;;;;0.37;100.00;101434.97;10376912;28;20409;-76
2023/01/21 05:20:42;;;;;;;23.00;8.48;;;;;;;0.61;100.00;101468.66;10375343;28;20502;-78
2023/01/21 05:25:43;;;;;;;26.58;8.85;;;;;;;0.70;100.00;101478.66;10377045;28;20053;-76
2023/01/21 05:30:44;;;;;;;18.10;8.10;;;;;;;0.80;100.00;101487.72;10376194;28;20096;-76
2023/01/21 05:35:44;;;;;;;22.35;8.88;;;;;;;0.89;100.00;101489.03;10377142;28;20123;-76
2023/01/21 05:40:45;;;;;;;22.23;8.90;;;;;;;0.68;100.00;101433.44;10375963;28;20529;-75
2023/01/21 05:45:46;;;;;;;22.33;9.02;;;;;;;1.04;100.00;101487.41;10362040;28;20434;-76
2023/01/21 05:50:48;;;;;;;25.85;9.32;;;;;;;1.09;100.00;101473.16;10371333;28;20087;-75
2023/01/21 05:55:55;;;;;;;25.45;10.07;;;;;;;1.28;100.00;101480.91;10358226;28;20045;-78
2023/01/21 06:00:57;;;;;;;24.30;9.32;;;;;;;1.14;100.00;101420.59;10376163;28;20049;-77
2023/01/21 06:05:58;;;;;;;30.02;10.27;;;;;;;1.76;100.00;101483.59;10375662;28;20055;-77
2023/01/21 06:10:58;;;;;;;27.60;10.65;;;;;;;1.91;100.00;101490.63;10375538;28;20042;-76
2023/01/21 06:15:59;;;;;;;28.88;11.23;;;;;;;1.98;100.00;101501.66;10375048;28;20046;-76
2023/01/21 06:21:00;;;;;;;32.60;12.35;;;;;;;2.01;100.00;101483.97;10374086;28;20057;-75
2023/01/21 06:26:02;;;;;;;25.60;10.95;;;;;;;2.18;100.00;101487.41;10374682;28;20144;-76
2023/01/21 06:31:02;;;;;;;27.23;11.43;;;;;;;1.95;100.00;101449.41;10374554;28;20046;-78
2023/01/21 06:36:04;;;;;;;27.80;10.48;;;;;;;2.18;100.00;101490.03;10374096;28;20046;-77
2023/01/21 06:41:04;;;;;;;24.98;11.20;;;;;;;2.30;100.00;101507.69;10374712;28;20128;-77
2023/01/21 06:46:05;;;;;;;29.83;10.43;;;;;;;2.40;100.00;101503.66;10373518;28;20497;-76
2023/01/21 06:51:06;;;;;;;29.27;10.98;;;;;;;2.33;100.00;101472.59;10373157;28;20069;-74
2023/01/21 06:56:06;;;;;;;41.30;11.23;;;;;;;2.62;100.00;101505.03;10373848;28;20569;-74
2023/01/21 07:01:07;;;;;;;30.13;10.93;;;;;;;2.72;100.00;101520.16;10373414;28;20042;-72
2023/01/21 07:06:08;;;;;;;29.23;11.85;;;;;;;2.69;100.00;101501.97;10372092;28;20398;-74
2023/01/21 07:11:09;;;;;;;36.08;12.02;;;;;;;2.84;100.00;101513.38;10372499;28;20049;-73
2023/01/21 07:16:09;;;;;;;29.27;11.40;;;;;;;2.37;100.00;101426.94;10373388;28;20474;-72
2023/01/21 07:21:10;;;;;;;28.90;11.63;;;;;;;2.94;100.00;101518.91;10371890;28;20431;-72
2023/01/21 07:26:11;;;;;;;31.05;11.52;;;;;;;2.47;100.00;101420.19;10372922;28;20046;-72
2023/01/21 07:31:12;;;;;;;28.65;12.32;;;;;;;2.94;100.00;101511.88;10372055;28;20046;-72
2023/01/21 07:36:13;;;;;;;29.23;11.25;;;;;;;3.15;100.00;101529.94;10372329;28;20042;-73
2023/01/21 07:41:14;;;;;;;30.45;11.13;;;;;;;2.97;100.00;101492.50;10371401;28;20498;-73
2023/01/21 07:46:18;;;;;;;31.30;10.75;;;;;;;2.89;100.00;101474.56;10371751;28;20034;-72
2023/01/21 07:51:20;;;;;;;21.75;9.98;;;;;;;2.85;100.00;101462.56;10371486;28;20050;-73
2023/01/21 07:56:23;;;;;;;31.25;11.05;;;;;;;3.02;100.00;101490.44;10372118;28;20057;-74
2023/01/21 08:01:29;;;;;;;38.10;10.23;;;;;;;3.08;100.00;101481.31;10372178;28;20029;-73
2023/01/21 08:06:30;;;;;;;26.02;10.05;;;;;;;3.40;100.00;101534.56;10371800;28;20046;-72
2023/01/21 08:11:31;;;;;;;24.23;10.35;;;;;;;3.48;100.00;101534.94;10370191;28;20041;-74
2023/01/21 08:16:31;;;;;;;21.13;9.48;;;;;;;3.27;100.00;101470.59;10372077;28;20409;-73
2023/01/21 08:21:32;;;;;;;22.63;9.95;;;;;;;3.66;100.00;101527.72;10371862;28;20045;-73
2023/01/21 08:26:33;;;;;;;21.95;10.00;;;;;;;3.58;100.00;101487.94;10371665;28;20424;-73
2023/01/21 08:31:34;;;;;;;34.05;11.55;;;;;;;3.81;100.00;101491.75;10371480;28;20049;-73
2023/01/21 08:36:37;;;;;;;33.25;11.55;;;;;;;3.78;100.00;101476.19;10371958;28;20034;-73
2023/01/21 08:41:39;;;;;;;27.17;11.15;;;;;;;3.67;100.00;101433.00;10369610;28;20041;-73
2023/01/21 08:46:40;;;;;;;32.22;10.93;;;;;;;4.05;100.00;101482.31;10371441;28;20049;-73
2023/01/21 08:51:40;;;;;;;35.78;10.38;;;;;;;3.64;100.00;101398.19;10370815;28;20045;-73
2023/01/21 08:56:41;;;;;;;36.85;11.23;;;;;;;4.35;100.00;101504.97;10375904;28;20057;-73
2023/01/21 09:01:42;;;;;;;27.90;10.82;;;;;;;4.46;100.00;101502.47;10377582;28;20041;-72
2023/01/21 09:06:43;;;;;;;27.25;11.93;;;;;;;3.64;100.00;101343.03;10376614;28;20038;-71
2023/01/21 09:11:44;;;;;;;35.75;12.77;;;;;;;3.70;100.00;101328.66;10376930;28;20132;-74
2023/01/21 09:16:47;;;;;;;34.55;12.38;;;;;;;4.83;100.00;101492.16;10377287;28;20065;-73
2023/01/21 09:21:48;;;;;;;31.90;13.03;;;;;;;4.96;100.00;101500.06;10377147;28;20060;-73
2023/01/21 09:26:49;;;;;;;29.35;13.27;;;;;;;4.97;100.00;101491.22;10377220;28;20045;-73
2023/01/21 09:31:49;;;;;;;31.90;13.07;;;;;;;4.98;100.00;101475.31;10376278;28;20038;-73
2023/01/21 09:36:50;;;;;;;37.95;13.63;;;;;;;5.11;100.00;101467.41;10376632;28;20042;-73
2023/01/21 09:41:53;;;;;;;36.88;13.77;;;;;;;4.92;100.00;101414.31;10376073;28;20049;-73
2023/01/21 09:46:56;;;;;;;34.85;13.70;;;;;;;5.38;99.86;101472.56;10374408;28;20053;-72
2023/01/21 09:52:35;;;;;;;35.90;13.80;;;;;;;5.61;99.07;101472.75;10375884;28;20041;-72
2023/01/21 09:58:08;;;;;;;36.85;14.38;;;;;;;5.56;98.24;101441.44;10375636;28;20046;-73
2023/01/21 10:03:39;;;;;;;34.05;13.60;;;;;;;5.84;97.58;101465.84;10375220;28;20038;-72
2023/01/21 10:09:06;;;;;;;33.10;14.63;;;;;;;5.46;98.01;101372.72;10375021;28;20072;-72
2023/01/21 10:14:22;;;;;;;37.50;13.95;;;;;;;5.94;96.83;101444.00;10375393;28;20050;-77
2023/01/21 10:19:35;;;;;;;27.83;13.93;;;;;;;6.14;96.40;101453.13;10375603;28;20054;-76
2023/01/21 10:24:46;;;;;;;42.28;16.50;;;;;;;6.30;96.32;101459.91;10370476;28;20498;-74
2023/01/21 10:29:57;;;;;;;37.85;16.27;;;;;;;6.33;96.02;101431.47;10372104;28;20132;-74
2023/01/21 10:34:59;;;;;;;40.67;15.60;;;;;;;6.43;94.86;101425.50;10373338;28;20490;-72
2023/01/21 10:40:42;;;;;;;47.08;16.83;;;;;;;6.77;92.98;101444.97;10374399;28;20048;-74
2023/01/21 10:45:57;;;;;;;44.97;16.45;;;;;;;6.80;92.51;101432.34;10373635;28;20133;-74
2023/01/21 10:51:11;;;;;;;47.72;15.07;;;;;;;7.11;91.08;101443.22;10373499;28;20049;-74
2023/01/21 10:56:34;;;;;;;42.03;14.63;;;;;;;7.27;89.30;101456.94;10373998;28;20042;-74
2023/01/21 11:01:41;;;;;;;41.38;14.52;;;;;;;7.11;89.60;101411.50;10372963;28;20135;-74
2023/01/21 11:06:45;;;;;;;50.05;14.00;;;;;;;7.43;89.33;101447.78;10373990;28;20053;-74
2023/01/21 11:11:46;;;;;;;42.15;13.88;;;;;;;7.61;88.54;101446.34;10373276;28;20049;-74
2023/01/21 11:16:49;;;;;;;45.92;15.02;;;;;;;7.72;87.12;101448.16;10371812;28;20062;-73
2023/01/21 11:22:15;;;;;;;43.22;13.73;;;;;;;7.89;84.75;101450.25;10372040;28;20124;-74
2023/01/21 11:27:37;;;;;;;43.78;13.70;;;;;;;8.05;83.36;101418.13;10369224;28;20469;-75
2023/01/21 11:32:37;;;;;;;47.53;12.75;;;;;;;8.47;83.00;101433.28;10346644;28;20414;-73
2023/01/21 11:37:38;;;;;;;51.63;13.63;;;;;;;8.50;81.33;101441.81;10348307;28;20033;-75
2023/01/21 11:42:57;;;;;;;53.63;13.25;;;;;;;8.28;79.63;101404.78;10344865;28;20134;-74
2023/01/21 11:47:59;;;;;;;42.95;12.82;;;;;;;8.74;78.48;101460.09;10345950;28;20508;-73
2023/01/21 11:53:06;;;;;;;51.85;12.63;;;;;;;8.90;76.27;101467.59;10348732;28;20037;-73
2023/01/21 11:58:25;;;;;;;47.90;14.48;;;;;;;8.74;75.99;101461.91;10344436;28;20042;-74
2023/01/21 12:03:34;;;;;;;53.53;13.90;;;;;;;8.45;75.29;101486.34;10347134;28;20038;-74
2023/01/21 12:08:39;;;;;;;42.95;14.15;;;;;;;7.97;76.46;101449.66;10348077;28;20509;-73
2023/01/21 12:14:04;;;;;;;48.35;14.15;;;;;;;8.05;77.13;101475.47;10345386;28;20453;-74
2023/01/21 12:19:39;;;;;;;38.97;13.73;;;;;;;8.09;77.52;101479.56;10346514;28;20054;-74
2023/01/21 12:25:00;;;;;;;47.95;13.88;;;;;;;8.11;77.48;101501.47;10356659;28;20545;-74
2023/01/21 12:30:22;;;;;;;39.53;14.02;;;;;;;8.06;76.87;101499.19;10376379;28;20612;-73
2023/01/21 12:35:29;;;;;;;40.70;12.70;;;;;;;7.50;76.87;101422.53;10378434;28;20038;-74
2023/01/21 12:40:35;;;;;;;49.00;12.93;;;;;;;7.87;76.20;101501.63;10379130;28;20133;-73
2023/01/21 12:45:47;;;;;;;40.83;13.63;;;;;;;7.92;76.76;101512.66;10378322;28;20132;-75
2023/01/21 12:50:58;;;;;;;52.22;14.07;;;;;;;7.89;77.25;101539.38;10378294;28;20064;-76
2023/01/21 12:56:26;;;;;;;55.03;14.40;;;;;;;7.86;77.40;101534.31;10378016;28;20042;-76
2023/01/21 13:01:42;;;;;;;38.95;13.63;;;;;;;7.78;77.78;101527.84;10378408;28;20038;-76
2023/01/21 13:06:55;;;;;;;48.72;13.80;;;;;;;7.27;77.18;101450.81;10378951;28;20068;-73
2023/01/21 13:12:04;;;;;;;41.97;14.40;;;;;;;7.58;77.74;101517.16;10377562;28;20052;-74
2023/01/21 13:17:15;;;;;;;37.92;13.10;;;;;;;7.57;77.37;101531.31;10377448;28;20053;-77
2023/01/21 13:22:44;;;;;;;45.50;13.75;;;;;;;7.62;77.32;101559.09;10377248;28;20038;-75
2023/01/21 13:27:58;;;;;;;40.58;14.25;;;;;;;7.02;77.53;101473.81;10376538;28;20505;-76
2023/01/21 13:33:02;;;;;;;;;;;;;;;7.57;77.46;101558.63;10377439;28;20536;-77
2023/01/21 13:38:30;;;;;;;39.42;13.27;;;;;;;7.06;77.25;101514.09;10373067;28;19913;-76
2023/01/21 13:43:57;;;;;;;42.78;12.23;;;;;;;7.33;77.27;101558.72;10369936;28;20041;-76
2023/01/21 13:49:16;;;;;;;36.72;12.82;;;;;;;7.22;78.35;101572.72;10375648;28;20132;-75
2023/01/21 13:54:37;;;;;;;34.58;13.13;;;;;;;7.03;78.54;101575.06;10335659;28;20042;-76
2023/01/21 13:59:50;;;;;;;33.15;12.45;;;;;;;6.97;78.95;101578.16;10335382;28;20038;-75
2023/01/21 14:04:54;;;;;;;33.60;12.83;;;;;;;6.79;79.18;101565.38;10345831;28;20042;-76
2023/01/21 14:10:04;;;;;;;43.93;13.63;;;;;;;6.49;80.13;101550.00;10375668;28;20045;-75
2023/01/21 14:15:16;;;;;;;39.33;14.02;;;;;;;6.67;80.21;101605.03;10375542;28;20038;-74
2023/01/21 14:20:38;;;;;;;30.30;12.73;;;;;;;6.53;81.50;101598.97;10375402;28;20089;-74
2023/01/21 14:26:04;;;;;;;37.80;13.02;;;;;;;6.54;82.15;101623.56;10375425;28;20045;-75
2023/01/21 14:31:16;;;;;;;30.10;13.50;;;;;;;6.47;82.08;101617.06;10375310;28;20072;-74
2023/01/21 14:36:25;;;;;;;29.00;13.45;;;;;;;6.42;81.85;101624.44;10374475;28;20136;-75
2023/01/21 14:41:53;;;;;;;26.98;13.07;;;;;;;6.38;82.47;101629.94;10374613;28;20049;-75
2023/01/21 14:47:15;;;;;;;27.77;13.43;;;;;;;6.30;82.77;101627.00;10373466;28;20041;-74
2023/01/21 14:52:18;;;;;;;22.95;13.07;;;;;;;6.10;83.12;101614.38;10373928;28;20042;-75
2023/01/21 14:57:33;;;;;;;31.07;13.73;;;;;;;6.17;83.76;101639.38;10373087;28;20038;-75
2023/01/21 15:02:37;;;;;;;;;;;;;;;6.27;83.54;101636.94;10374057;28;20040;-74
2023/01/21 15:07:39;;;;;;;;;;;;;;;6.23;83.98;101646.03;10373786;28;19924;-74
2023/01/21 15:12:45;;;;;;;26.23;14.43;;;;;;;6.10;84.50;101641.63;10371918;28;19975;-73
2023/01/21 15:17:56;;;;;;;26.77;14.63;;;;;;;6.10;85.24;101649.53;10371608;28;20053;-74
2023/01/21 15:23:19;;;;;;;26.83;14.88;;;;;;;6.10;85.66;101643.38;10373106;28;20053;-76
2023/01/21 15:28:23;;;;;;;30.52;11.60;;;;;;;6.00;85.05;101642.34;10371510;28;20104;-76
2023/01/21 15:33:24;;;;;;;25.30;9.93;;;;;;;5.41;84.91;101619.91;10372501;28;20064;-76
2023/01/21 15:38:25;;;;;;;23.92;8.65;;;;;;;5.28;86.55;101642.78;10372750;28;20045;-75
2023/01/21 15:43:41;;;;;;;31.23;7.38;;;;;;;4.87;87.00;101625.25;10371608;28;20173;-75
2023/01/21 15:48:46;;;;;;;20.38;6.07;;;;;;;4.84;86.61;101664.13;10360813;28;20049;-75
2023/01/21 15:54:04;;;;;;;15.93;5.53;;;;;;;4.56;87.84;101657.97;10370521;28;20042;-76
2023/01/21 15:59:25;;;;;;;23.05;5.43;;;;;;;4.23;88.02;101626.75;10372672;28;20100;-77
2023/01/21 16:04:45;;;;;;;20.20;6.00;;;;;;;3.72;88.74;101573.81;10374513;28;20048;-73
2023/01/21 16:09:51;;;;;;;18.90;4.60;;;;;;;4.12;88.77;101662.41;10339871;28;20077;-73
2023/01/21 16:15:13;;;;;;;25.05;4.80;;;;;;;3.99;89.24;101665.91;10338787;28;20085;-72
2023/01/21 16:20:15;;;;;;;17.83;5.25;;;;;;;3.54;88.88;101633.56;10360840;28;20081;-71
2023/01/21 16:25:20;;;;;;;15.60;4.78;;;;;;;3.34;89.31;101601.41;10379152;28;20038;-72
2023/01/21 16:30:30;;;;;;;21.75;5.22;;;;;;;3.53;90.24;101645.88;10377544;28;20050;-74
2023/01/21 16:35:46;;;;;;;12.80;4.82;;;;;;;3.20;90.35;101612.75;10379115;28;20418;-73
2023/01/21 16:40:49;;;;;;;13.95;4.97;;;;;;;2.81;90.77;101566.00;10377639;28;20430;-77
2023/01/21 16:45:56;;;;;;;14.07;4.45;;;;;;;2.84;90.84;101586.84;10376123;28;20046;-75
2023/01/21 16:50:57;;;;;;;16.83;4.35;;;;;;;3.33;91.11;101702.19;10375989;28;20042;-74
2023/01/21 16:55:58;;;;;;;21.27;4.45;;;;;;;3.01;91.29;101643.63;10377827;28;20173;-75
2023/01/21 17:01:09;;;;;;;16.67;4.38;;;;;;;2.95;92.80;101663.19;10378332;28;20543;-75
2023/01/21 17:06:17;;;;;;;17.33;4.45;;;;;;;3.14;93.07;101704.13;10378135;28;20074;-74
2023/01/21 17:11:20;;;;;;;13.27;3.92;;;;;;;2.59;92.89;101613.59;10377236;28;20050;-74
2023/01/21 17:16:30;;;;;;;13.48;3.92;;;;;;;3.07;93.85;101700.19;10375859;28;20041;-74
2023/01/21 17:21:54;;;;;;;16.65;4.57;;;;;;;3.00;95.39;101698.84;10378032;28;20053;-74
2023/01/21 17:27:16;;;;;;;15.27;4.20;;;;;;;3.01;95.14;101696.13;10365892;28;20042;-75
2023/01/21 17:32:32;;;;;;;15.77;4.78;;;;;;;2.92;95.06;101692.22;10349992;28;20050;-74
2023/01/21 17:37:58;;;;;;;12.40;4.07;;;;;;;2.86;97.04;101689.09;10352545;28;20418;-74
2023/01/21 17:43:09;;;;;;;15.20;4.43;;;;;;;2.83;96.90;101699.78;10353907;28;20450;-74
2023/01/21 17:48:21;;;;;;;13.52;5.03;;;;;;;2.40;97.89;101626.91;10351899;28;20441;-71
2023/01/21 17:53:27;;;;;;;23.90;5.85;;;;;;;2.16;97.31;101592.38;10358865;28;20038;-73
2023/01/21 17:58:31;;;;;;;17.85;4.72;;;;;;;2.76;97.90;101693.19;10358577;28;20077;-73
2023/01/21 18:03:31;;;;;;;12.90;5.13;;;;;;;2.50;97.70;101645.59;10354422;28;20383;-74
2023/01/21 18:08:32;;;;;;;21.83;6.00;;;;;;;2.71;97.94;101669.81;10360494;28;20132;-73
2023/01/21 18:13:33;;;;;;;19.27;5.75;;;;;;;2.41;98.74;101638.22;10363781;28;20069;-74
2023/01/21 18:18:34;;;;;;;16.75;5.82;;;;;;;1.76;99.05;101544.69;10349609;28;20057;-74
2023/01/21 18:23:35;;;;;;;30.20;5.93;;;;;;;1.77;98.68;101527.25;10344104;28;20042;-74
2023/01/21 18:28:36;;;;;;;19.38;6.05;;;;;;;2.51;99.29;101653.41;10355349;28;20140;-74
2023/01/21 18:33:36;;;;;;;17.00;6.85;;;;;;;2.36;99.90;101624.50;10357704;28;20100;-74
2023/01/21 18:38:37;;;;;;;23.73;6.95;;;;;;;2.53;100.00;101663.78;10352365;28;20566;-74
2023/01/21 18:43:38;;;;;;;20.00;7.38;;;;;;;2.69;100.00;101680.41;10351598;28;20046;-74
2023/01/21 18:48:39;;;;;;;26.08;7.13;;;;;;;2.77;100.00;101687.00;10352447;28;20034;-75
2023/01/21 18:53:40;;;;;;;26.25;8.02;;;;;;;2.83;100.00;101684.88;10351411;28;20053;-74
2023/01/21 18:58:41;;;;;;;25.40;8.15;;;;;;;2.17;100.00;101567.84;10344235;28;20081;-74
2023/01/21 19:03:42;;;;;;;29.67;9.27;;;;;;;2.81;100.00;101681.47;10359334;28;20049;-74
2023/01/21 19:08:44;;;;;;;27.15;9.27;;;;;;;2.50;100.00;101616.75;10351590;28;20038;-74
2023/01/21 19:13:44;;;;;;;23.23;10.13;;;;;;;2.45;100.00;101603.03;10348328;28;20038;-73
2023/01/21 19:18:45;;;;;;;31.98;10.13;;;;;;;2.92;100.00;101678.25;10354001;28;20054;-73
2023/01/21 19:23:46;;;;;;;26.50;11.27;;;;;;;2.76;100.00;101653.81;10371420;28;20029;-73
2023/01/21 19:28:46;;;;;;;27.20;10.38;;;;;;;2.78;100.00;101646.69;10373238;28;20556;-73
2023/01/21 19:33:47;;;;;;;29.23;12.13;;;;;;;2.91;100.00;101668.69;10373058;28;20045;-73
2023/01/21 19:38:58;;;;;;;28.95;11.93;;;;;;;3.01;100.00;101685.63;10371979;28;20124;-73
2023/01/21 19:43:59;;;;;;;33.40;12.20;;;;;;;2.48;100.00;101584.50;10372480;28;20072;-74
2023/01/21 19:49:10;;;;;;;30.30;11.60;;;;;;;2.55;100.00;101604.22;10370768;28;20053;-75
2023/01/21 19:54:11;;;;;;;41.17;13.40;;;;;;;2.89;100.00;101662.69;10372263;28;20128;-73
2023/01/21 19:59:14;;;;;;;28.17;12.60;;;;;;;2.86;100.00;101655.81;10357790;28;20124;-73
2023/01/21 20:04:14;;;;;;;30.98;13.85;;;;;;;3.01;100.00;101677.75;10341960;28;20054;-73
2023/01/21 20:09:17;;;;;;;32.35;13.38;;;;;;;2.88;100.00;101661.00;10352334;28;20513;-73
2023/01/21 20:14:18;;;;;;;30.05;12.10;;;;;;;2.33;100.00;101567.84;10370396;28;20041;-73
2023/01/21 20:19:21;;;;;;;31.23;12.68;;;;;;;2.36;100.00;101565.03;10371408;28;20053;-73
2023/01/21 20:24:22;;;;;;;32.83;13.20;;;;;;;3.00;100.00;101669.97;10372675;28;20042;-73
2023/01/21 20:29:24;;;;;;;26.23;12.70;;;;;;;2.98;100.00;101681.38;10371702;28;20046;-73
2023/01/21 20:34:26;;;;;;;27.58;12.77;;;;;;;2.95;100.00;101683.34;10370687;28;20038;-73
2023/01/21 20:39:27;;;;;;;33.65;13.05;;;;;;;2.96;100.00;101680.63;10371363;28;20050;-73
2023/01/21 20:44:28;;;;;;;34.13;12.40;;;;;;;2.93;100.00;101679.94;10371544;28;20042;-73
2023/01/21 20:49:29;;;;;;;29.52;11.85;;;;;;;2.92;100.00;101678.25;10372990;28;20081;-73
2023/01/21 20:54:30;;;;;;;26.10;12.40;;;;;;;2.77;100.00;101661.59;10378096;28;20128;-73
2023/01/21 20:59:31;;;;;;;23.75;11.90;;;;;;;2.65;100.00;101643.91;10378481;28;20121;-73
2023/01/21 21:04:31;;;;;;;21.80;10.95;;;;;;;2.83;100.00;101673.53;10378408;28;20061;-72
2023/01/21 21:09:35;;;;;;;29.48;12.68;;;;;;;2.77;100.00;101656.34;10378391;28;20049;-73
2023/01/21 21:14:35;;;;;;;30.55;12.45;;;;;;;2.79;100.00;101657.09;10377615;28;20034;-73
2023/01/21 21:19:36;;;;;;;27.52;12.52;;;;;;;2.16;100.00;101558.28;10377911;28;20057;-73
2023/01/21 21:24:37;;;;;;;34.13;12.65;;;;;;;2.76;100.00;101666.94;10377569;28;20050;-73
2023/01/21 21:29:38;;;;;;;30.08;11.75;;;;;;;2.69;100.00;101664.66;10377507;28;20068;-73
2023/01/21 21:34:39;;;;;;;25.20;10.65;;;;;;;2.50;100.00;101645.59;10377103;28;20068;-73
2023/01/21 21:39:40;;;;;;;27.20;10.05;;;;;;;2.62;100.00;101673.78;10377438;28;20041;-73
2023/01/21 21:44:42;;;;;;;22.85;9.77;;;;;;;2.41;100.00;101632.97;10376453;28;20436;-73
2023/01/21 21:49:43;;;;;;;29.50;11.02;;;;;;;2.46;100.00;101649.31;10375269;28;20034;-73
2023/01/21 21:54:43;;;;;;;25.33;9.80;;;;;;;2.25;100.00;101646.94;10374370;28;20127;-74
2023/01/21 21:59:45;;;;;;;30.25;8.98;;;;;;;2.36;100.00;101669.09;10375639;28;20065;-73
2023/01/21 22:04:46;;;;;;;26.45;9.52;;;;;;;1.55;100.00;101559.78;10375703;28;20042;-73
2023/01/21 22:09:47;;;;;;;26.90;9.73;;;;;;;1.87;100.00;101601.78;10375779;28;20045;-73
2023/01/21 22:14:47;;;;;;;31.05;9.32;;;;;;;2.17;100.00;101664.84;10375364;28;20050;-73
2023/01/21 22:19:48;;;;;;;26.33;10.05;;;;;;;2.09;100.00;101640.78;10374574;28;20422;-73
2023/01/21 22:24:49;;;;;;;22.98;9.23;;;;;;;2.24;100.00;101644.38;10374924;28;20497;-74
2023/01/21 22:29:49;;;;;;;19.83;8.80;;;;;;;1.56;100.00;101539.69;10375139;28;20092;-73
2023/01/21 22:34:50;;;;;;;31.80;10.55;;;;;;;1.99;100.00;101629.97;10374107;28;20038;-73
2023/01/21 22:39:51;;;;;;;31.30;10.43;;;;;;;2.15;100.00;101660.59;10374048;28;20387;-73
2023/01/21 22:44:51;;;;;;;25.70;10.35;;;;;;;2.01;100.00;101648.25;10374820;28;20038;-73
2023/01/21 22:49:52;;;;;;;20.88;9.40;;;;;;;1.52;100.00;101546.84;10373926;28;20045;-74
2023/01/21 22:54:53;;;;;;;26.15;10.35;;;;;;;2.07;100.00;101639.22;10374466;28;20045;-73
2023/01/21 22:59:54;;;;;;;32.03;10.68;;;;;;;1.99;100.00;101622.09;10372603;28;20046;-73
2023/01/21 23:04:54;;;;;;;28.25;10.40;;;;;;;1.93;100.00;101608.47;10373638;28;20038;-73
2023/01/21 23:09:55;;;;;;;25.27;10.48;;;;;;;1.61;100.00;101550.75;10371485;28;20041;-73
2023/01/21 23:14:56;;;;;;;36.28;11.20;;;;;;;1.19;100.00;101477.94;10372548;28;20052;-73